.
WxDataArchive / Data Records for 2008-04-04
2008-04-03 April 2008 2008-04-05

Data Records for Friday, 04 April 2008

Time	Temp	Chill	HIndex	Humid	Dewpt	 Wind 	HiWind	WindDir	Rain 	Barom 
-----	----	-----	------	-----	-----	------	------	-------	-----	----- 
00:00	42.3	42.3	42.3	96	41.2	2	5	90	0.00	29.753 
00:05	42.5	42.5	42.5	96	41.4	3	7	112	0.01	29.744 
00:10	42.5	42.5	42.5	96	41.4	3	9	112	0.00	29.743 
00:15	42.5	42.5	42.5	96	41.4	2	5	112	0.00	29.744 
00:20	42.6	42.6	42.6	96	41.5	2	6	112	0.01	29.738 
00:25	42.6	42.6	42.6	96	41.5	3	7	112	0.02	29.736 
00:30	42.6	42.6	42.6	96	41.5	3	10	112	0.00	29.722 
00:35	42.6	42.6	42.6	96	41.5	2	6	90	0.00	29.724 
00:40	42.6	42.6	42.6	96	41.5	3	7	90	0.01	29.732 
00:45	42.8	42.8	42.8	96	41.7	2	7	112	0.00	29.735 
00:50	42.8	42.8	42.8	96	41.7	3	7	112	0.00	29.727 
00:55	42.8	42.8	42.8	96	41.7	3	5	112	0.00	29.736 
01:00	42.8	42.8	42.8	96	41.7	3	5	112	0.00	29.723 
01:05	42.9	42.9	42.9	96	41.8	3	6	112	0.00	29.712 
01:10	42.9	42.9	42.9	97	42.1	3	6	112	0.01	29.712 
01:15	42.9	40.7	42.9	97	42.1	4	11	112	0.00	29.714 
01:20	42.9	42.9	42.9	97	42.1	2	7	112	0.00	29.715 
01:25	43.1	43.1	43.1	97	42.3	1	5	90	0.00	29.716 
01:30	43.1	43.1	43.1	97	42.3	1	4	112	0.00	29.718 
01:35	43.2	43.2	43.2	97	42.4	3	6	112	0.00	29.713 
01:40	43.2	43.2	43.2	97	42.4	3	6	90	0.00	29.703 
01:45	43.2	43.2	43.2	97	42.4	2	6	90	0.00	29.698 
01:50	43.2	43.2	43.2	97	42.4	2	5	112	0.00	29.699 
01:55	43.2	43.2	43.2	97	42.4	2	4	112	0.00	29.689 
02:00	43.2	43.2	43.2	97	42.4	3	9	112	0.00	29.689 
02:05	43.2	43.2	43.2	97	42.4	3	10	90	0.00	29.686 
02:10	43.2	43.2	43.2	97	42.4	3	9	112	0.00	29.686 
02:15	43.3	43.3	43.3	97	42.5	2	6	90	0.00	29.702 
02:20	43.3	43.3	43.3	97	42.5	1	6	45	0.00	29.712 
02:25	43.3	43.3	43.3	97	42.5	1	4	68	0.00	29.711 
02:30	43.3	43.3	43.3	97	42.5	1	5	112	0.00	29.701 
02:35	43.3	43.3	43.3	97	42.5	1	5	112	0.00	29.699 
02:40	43.3	43.3	43.3	97	42.5	1	3	90	0.00	29.692 
02:45	43.3	43.3	43.3	97	42.5	1	2	22	0.00	29.692 
02:50	43.3	43.3	43.3	97	42.5	1	5	112	0.00	29.690 
02:55	43.3	43.3	43.3	97	42.5	1	4	22	0.00	29.684 
03:00	43.3	43.3	43.3	97	42.5	1	4	112	0.00	29.686 
03:05	43.3	43.3	43.3	97	42.5	1	3	90	0.00	29.693 
03:10	43.3	43.3	43.3	97	42.5	1	4	135	0.00	29.688 
03:15	43.3	43.3	43.3	97	42.5	0	2	135	0.00	29.687 
03:20	43.2	43.2	43.2	97	42.4	0	2	135	0.00	29.682 
03:25	43.1	43.1	43.1	97	42.3	1	3	45	0.00	29.677 
03:30	42.9	42.9	42.9	97	42.1	1	3	135	0.00	29.669 
03:35	42.8	42.8	42.8	97	42.0	2	4	22	0.00	29.668 
03:40	42.8	42.8	42.8	97	42.0	1	5	112	0.00	29.666 
03:45	42.8	42.8	42.8	97	42.0	1	4	68	0.00	29.672 
03:50	42.8	42.8	42.8	97	42.0	1	3	68	0.00	29.675 
03:55	42.8	42.8	42.8	97	42.0	1	2	112	0.00	29.668 
04:00	42.8	42.8	42.8	97	42.0	1	3	135	0.00	29.672 
04:05	42.8	42.8	42.8	97	42.0	1	3	22	0.00	29.666 
04:10	42.8	42.8	42.8	97	42.0	1	3	45	0.00	29.662 
04:15	42.8	42.8	42.8	97	42.0	1	4	112	0.00	29.666 
04:20	42.8	42.8	42.8	97	42.0	1	4	112	0.00	29.661 
04:25	42.8	42.8	42.8	97	42.0	2	4	45	0.00	29.657 
04:30	42.8	42.8	42.8	97	42.0	1	4	90	0.00	29.655 
04:35	42.8	42.8	42.8	97	42.0	1	4	112	0.00	29.654 
04:40	42.8	42.8	42.8	97	42.0	2	6	112	0.01	29.654 
04:45	42.6	42.6	42.6	97	41.8	1	4	45	0.00	29.655 
04:50	42.6	42.6	42.6	97	41.8	1	3	45	0.00	29.656 
04:55	42.5	42.5	42.5	97	41.7	1	5	135	0.00	29.664 
05:00	42.3	42.3	42.3	97	41.5	1	3	68	0.00	29.656 
05:05	42.2	42.2	42.2	97	41.4	1	5	45	0.00	29.654 
05:10	42.1	42.1	42.1	97	41.3	1	3	90	0.00	29.653 
05:15	42.1	42.1	42.1	97	41.3	1	3	112	0.00	29.656 
05:20	41.9	41.9	41.9	97	41.1	1	3	45	0.00	29.656 
05:25	41.9	41.9	41.9	97	41.1	1	3	68	0.00	29.657 
05:30	41.9	41.9	41.9	97	41.1	1	4	90	0.00	29.656 
05:35	41.9	41.9	41.9	97	41.1	1	4	0	0.00	29.656 
05:40	41.9	41.9	41.9	97	41.1	1	3	45	0.00	29.665 
05:45	41.9	41.9	41.9	97	41.1	1	4	45	0.00	29.668 
05:50	41.9	41.9	41.9	97	41.1	0	4	112	0.00	29.672 
05:55	41.8	41.8	41.8	97	41.0	1	3	90	0.00	29.674 
06:00	41.8	41.8	41.8	97	41.0	0	1	90	0.00	29.675 
06:05	41.8	41.8	41.8	97	41.0	1	4	90	0.00	29.675 
06:10	41.6	41.6	41.6	97	40.8	2	4	22	0.01	29.675 
06:15	41.6	41.6	41.6	97	40.8	1	4	0	0.01	29.672 
06:20	41.6	41.6	41.6	97	40.8	2	6	112	0.00	29.674 
06:25	41.5	41.5	41.5	97	40.7	1	3	22	0.00	29.677 
06:30	41.5	41.5	41.5	97	40.7	1	3	22	0.00	29.675 
06:35	41.5	41.5	41.5	97	40.7	0	1	22	0.00	29.687 
06:40	41.5	41.5	41.5	97	40.7	0	2	22	0.00	29.689 
06:45	41.5	41.5	41.5	97	40.7	1	2	22	0.00	29.689 
06:50	41.3	41.3	41.3	97	40.5	1	5	45	0.00	29.690 
06:55	41.3	41.3	41.3	97	40.5	0	1	112	0.00	29.701 
07:00	41.3	41.3	41.3	97	40.5	0	1	112	0.00	29.700 
07:05	41.3	41.3	41.3	97	40.5	1	4	22	0.00	29.700 
07:10	41.2	41.2	41.2	97	40.4	1	3	22	0.00	29.694 
07:15	41.2	41.2	41.2	97	40.4	1	4	22	0.00	29.694 
07:20	41.3	41.3	41.3	97	40.5	1	4	22	0.00	29.698 
07:25	41.2	41.2	41.2	97	40.4	1	3	22	0.00	29.695 
07:30	41.3	41.3	41.3	97	40.5	1	4	22	0.00	29.702 
07:35	41.2	41.2	41.2	97	40.4	1	3	45	0.00	29.706 
07:40	41.3	41.3	41.3	97	40.5	0	2	45	0.00	29.708 
07:45	41.3	41.3	41.3	97	40.5	0	2	45	0.00	29.709 
07:50	41.2	41.2	41.2	97	40.4	1	4	45	0.00	29.706 
07:55	41.2	41.2	41.2	97	40.4	1	4	135	0.00	29.707 
08:00	41.2	41.2	41.2	97	40.4	1	4	22	0.00	29.710 
08:05	41.2	41.2	41.2	97	40.4	1	4	45	0.00	29.710 
08:10	41.1	41.1	41.1	97	40.3	1	3	68	0.00	29.711 
08:15	41.1	41.1	41.1	97	40.3	1	3	68	0.00	29.710 
08:20	41.1	41.1	41.1	97	40.3	1	7	45	0.00	29.709 
08:25	41.1	41.1	41.1	97	40.3	1	5	135	0.00	29.713 
08:30	41.1	41.1	41.1	97	40.3	1	3	292	0.00	29.710 
08:35	41.1	41.1	41.1	97	40.3	1	6	0	0.00	29.709 
08:40	41.2	41.2	41.2	97	40.4	1	5	22	0.01	29.706 
08:45	41.2	41.2	41.2	97	40.4	1	5	90	0.00	29.709 
08:50	41.2	41.2	41.2	97	40.4	1	3	112	0.00	29.706 
08:55	41.2	41.2	41.2	97	40.4	1	3	90	0.00	29.706 
09:00	41.2	41.2	41.2	96	40.1	1	2	90	0.00	29.707 
09:05	41.1	41.1	41.1	96	40.0	1	4	45	0.00	29.711 
09:10	41.1	41.1	41.1	96	40.0	1	4	68	0.00	29.711 
09:15	41.1	41.1	41.1	96	40.0	1	5	112	0.00	29.707 
09:20	40.9	40.9	40.9	96	39.8	2	5	45	0.00	29.712 
09:25	40.9	40.9	40.9	96	39.8	1	4	68	0.00	29.715 
09:30	40.9	40.9	40.9	96	39.8	2	5	45	0.00	29.717 
09:35	40.9	40.9	40.9	96	39.8	2	4	45	0.00	29.714 
09:40	40.9	40.9	40.9	96	39.8	1	4	68	0.00	29.712 
09:45	40.9	40.9	40.9	96	39.8	2	4	112	0.00	29.715 
09:50	41.1	41.1	41.1	96	40.0	2	4	90	0.00	29.718 
09:55	41.1	41.1	41.1	96	40.0	2	6	135	0.00	29.711 
10:00	41.2	41.2	41.2	96	40.1	2	5	90	0.00	29.709 
10:05	41.3	41.3	41.3	96	40.2	1	4	68	0.00	29.712 
10:10	41.5	41.5	41.5	96	40.4	2	5	68	0.00	29.708 
10:15	41.3	41.3	41.3	96	40.2	2	5	135	0.00	29.709 
10:20	41.5	41.5	41.5	96	40.4	2	4	90	0.00	29.708 
10:25	41.6	41.6	41.6	96	40.5	2	7	90	0.00	29.710 
10:30	41.6	41.6	41.6	95	40.3	2	5	45	0.00	29.715 
10:35	41.6	41.6	41.6	95	40.3	2	5	45	0.00	29.714 
10:40	41.8	41.8	41.8	95	40.5	1	3	68	0.00	29.715 
10:45	41.8	41.8	41.8	95	40.5	1	5	68	0.00	29.717 
10:50	41.8	41.8	41.8	95	40.5	1	4	90	0.00	29.715 
10:55	41.8	41.8	41.8	94	40.2	1	4	45	0.00	29.717 
11:00	41.8	41.8	41.8	94	40.2	2	4	45	0.00	29.729 
11:05	41.9	41.9	41.9	94	40.3	0	3	135	0.00	29.727 
11:10	41.9	41.9	41.9	93	40.0	1	3	90	0.00	29.728 
11:15	41.9	41.9	41.9	93	40.0	1	4	112	0.00	29.729 
11:20	41.9	41.9	41.9	93	40.0	1	3	45	0.00	29.727 
11:25	42.1	42.1	42.1	93	40.2	1	3	45	0.00	29.726 
11:30	42.1	42.1	42.1	92	39.9	0	2	68	0.00	29.727 
11:35	42.1	42.1	42.1	93	40.2	0	2	68	0.00	29.727 
11:40	41.9	41.9	41.9	93	40.0	0	2	112	0.00	29.736 
11:45	41.8	41.8	41.8	93	39.9	1	3	0	0.00	29.742 
11:50	41.8	41.8	41.8	93	39.9	0	1	0	0.00	29.744 
11:55	41.8	41.8	41.8	93	39.9	0	2	0	0.00	29.743 
12:00	41.8	41.8	41.8	93	39.9	0	1	0	0.00	29.752 
12:05	41.8	41.8	41.8	93	39.9	0	2	0	0.00	29.758 
12:10	41.8	41.8	41.8	93	39.9	0	2	0	0.00	29.757 
12:15	41.8	41.8	41.8	94	40.2	0	1	0	0.00	29.755 
12:20	41.8	41.8	41.8	94	40.2	0	3	0	0.00	29.756 
12:25	41.8	41.8	41.8	94	40.2	1	4	292	0.00	29.756 
12:30	41.8	41.8	41.8	94	40.2	0	2	292	0.00	29.754 
12:35	41.8	41.8	41.8	94	40.2	0	2	315	0.00	29.746 
12:40	41.9	41.9	41.9	94	40.3	1	3	315	0.00	29.747 
12:45	41.9	41.9	41.9	94	40.3	0	3	338	0.00	29.748 
12:50	41.9	41.9	41.9	94	40.3	0	3	0	0.00	29.756 
12:55	42.1	42.1	42.1	94	40.5	0	1	0	0.00	29.757 
13:00	41.9	41.9	41.9	94	40.3	1	3	0	0.00	29.746 
13:05	41.9	41.9	41.9	94	40.3	0	3	0	0.00	29.748 
13:10	42.1	42.1	42.1	94	40.5	0	2	292	0.00	29.756 
13:15	41.9	41.9	41.9	93	40.0	1	4	0	0.00	29.755 
13:20	42.1	42.1	42.1	93	40.2	1	2	338	0.00	29.749 
13:25	42.2	42.2	42.2	92	40.0	1	4	0	0.00	29.743 
13:30	42.3	42.3	42.3	92	40.1	1	2	0	0.00	29.744 
13:35	42.5	42.5	42.5	92	40.3	0	3	0	0.00	29.743 
13:40	42.5	42.5	42.5	91	40.1	1	3	315	0.00	29.746 
13:45	42.5	42.5	42.5	91	40.1	1	3	315	0.00	29.750 
13:50	42.5	42.5	42.5	91	40.1	1	4	270	0.00	29.749 
13:55	42.6	42.6	42.6	91	40.2	0	1	270	0.00	29.747 
14:00	42.5	42.5	42.5	91	40.1	0	3	270	0.00	29.751 
14:05	42.6	42.6	42.6	91	40.2	0	1	270	0.00	29.755 
14:10	42.6	42.6	42.6	91	40.2	0	2	270	0.00	29.756 
14:15	42.6	42.6	42.6	90	39.9	1	2	292	0.00	29.760 
14:20	42.6	42.6	42.6	90	39.9	0	2	315	0.00	29.769 
14:25	42.6	42.6	42.6	90	39.9	0	2	292	0.00	29.770 
14:30	42.6	42.6	42.6	89	39.6	0	2	292	0.00	29.768 
14:35	42.8	42.8	42.8	89	39.8	0	1	292	0.00	29.764 
14:40	42.8	42.8	42.8	89	39.8	0	2	292	0.00	29.764 
14:45	42.8	42.8	42.8	88	39.5	0	2	292	0.00	29.769 
14:50	42.8	42.8	42.8	88	39.5	1	2	292	0.00	29.768 
14:55	42.8	42.8	42.8	88	39.5	0	2	292	0.00	29.771 
15:00	42.8	42.8	42.8	87	39.2	0	1	292	0.00	29.771 
15:05	42.9	42.9	42.9	87	39.3	0	1	292	0.00	29.772 
15:10	42.9	42.9	42.9	87	39.3	0	2	292	0.00	29.773 
15:15	42.9	42.9	42.9	87	39.3	0	1	292	0.00	29.772 
15:20	43.1	43.1	43.1	87	39.5	0	3	292	0.00	29.774 
15:25	43.1	43.1	43.1	86	39.2	0	2	292	0.00	29.777 
15:30	43.1	43.1	43.1	86	39.2	0	2	292	0.00	29.774 
15:35	43.2	43.2	43.2	86	39.3	0	2	292	0.00	29.780 
15:40	43.2	43.2	43.2	85	39.0	1	2	292	0.00	29.773 
15:45	43.2	43.2	43.2	85	39.0	0	2	315	0.00	29.772 
15:50	43.3	43.3	43.3	86	39.4	0	2	315	0.00	29.772 
15:55	43.2	43.2	43.2	85	39.0	1	2	315	0.00	29.772 
16:00	43.3	43.3	43.3	85	39.1	1	3	315	0.00	29.771 
16:05	43.3	43.3	43.3	85	39.1	1	5	0	0.00	29.775 
16:10	43.5	43.5	43.5	85	39.3	0	2	270	0.00	29.773 
16:15	43.5	43.5	43.5	84	39.0	0	3	338	0.00	29.767 
16:20	43.5	43.5	43.5	85	39.3	0	2	0	0.00	29.766 
16:25	43.5	43.5	43.5	84	39.0	0	3	0	0.00	29.767 
16:30	43.5	43.5	43.5	84	39.0	1	3	315	0.00	29.764 
16:35	43.3	43.3	43.3	84	38.8	1	4	315	0.00	29.765 
16:40	43.3	43.3	43.3	85	39.1	1	3	315	0.00	29.766 
16:45	43.3	43.3	43.3	85	39.1	1	3	292	0.00	29.769 
16:50	43.3	43.3	43.3	85	39.1	0	3	270	0.00	29.771 
16:55	43.3	43.3	43.3	85	39.1	0	2	270	0.00	29.774 
17:00	43.3	43.3	43.3	85	39.1	1	3	292	0.00	29.773 
17:05	43.3	43.3	43.3	85	39.1	0	4	0	0.00	29.772 
17:10	43.5	43.5	43.5	85	39.3	0	2	270	0.00	29.771 
17:15	43.3	43.3	43.3	85	39.1	0	1	270	0.00	29.772 
17:20	43.3	43.3	43.3	85	39.1	0	4	270	0.00	29.774 
17:25	43.3	43.3	43.3	86	39.4	0	2	270	0.00	29.775 
17:30	43.3	43.3	43.3	86	39.4	1	6	292	0.00	29.778 
17:35	43.3	43.3	43.3	85	39.1	1	6	292	0.00	29.784 
17:40	43.3	43.3	43.3	86	39.4	1	4	270	0.00	29.787 
17:45	43.5	43.5	43.5	85	39.3	1	3	270	0.00	29.789 
17:50	43.5	43.5	43.5	85	39.3	0	2	90	0.00	29.799 
17:55	43.5	43.5	43.5	85	39.3	0	2	90	0.00	29.803 
18:00	43.6	43.6	43.6	85	39.4	0	3	90	0.00	29.805 
18:05	43.6	43.6	43.6	85	39.4	0	2	292	0.00	29.811 
18:10	43.6	43.6	43.6	85	39.4	0	1	292	0.00	29.808 
18:15	43.6	43.6	43.6	85	39.4	0	3	292	0.00	29.812 
18:20	43.6	43.6	43.6	84	39.1	0	2	292	0.00	29.820 
18:25	43.6	43.6	43.6	84	39.1	0	1	292	0.00	29.820 
18:30	43.8	43.8	43.8	84	39.3	0	1	292	0.00	29.822 
18:35	43.6	43.6	43.6	84	39.1	0	1	292	0.00	29.824 
18:40	43.6	43.6	43.6	84	39.1	0	1	292	0.00	29.828 
18:45	43.6	43.6	43.6	84	39.1	0	1	292	0.00	29.835 
18:50	43.6	43.6	43.6	84	39.1	0	1	292	0.00	29.836 
18:55	43.6	43.6	43.6	84	39.1	0	1	292	0.00	29.835 
19:00	43.5	43.5	43.5	84	39.0	0	1	292	0.00	29.830 
19:05	43.5	43.5	43.5	84	39.0	0	1	292	0.00	29.833 
19:10	43.5	43.5	43.5	84	39.0	0	1	292	0.00	29.835 
19:15	43.3	43.3	43.3	84	38.8	0	1	292	0.00	29.838 
19:20	43.3	43.3	43.3	84	38.8	0	0	---	0.00	29.839 
19:25	43.2	43.2	43.2	84	38.7	0	1	292	0.00	29.839 
19:30	43.2	43.2	43.2	85	39.0	0	1	292	0.00	29.839 
19:35	43.1	43.1	43.1	85	38.9	0	1	292	0.00	29.838 
19:40	42.9	42.9	42.9	85	38.7	0	1	292	0.00	29.840 
19:45	42.8	42.8	42.8	85	38.6	0	0	---	0.00	29.838 
19:50	42.5	42.5	42.5	85	38.3	0	0	---	0.00	29.838 
19:55	42.2	42.2	42.2	86	38.3	0	0	---	0.00	29.843 
20:00	41.9	41.9	41.9	86	38.0	0	0	---	0.00	29.850 
20:05	41.6	41.6	41.6	87	38.0	0	0	---	0.00	29.852 
20:10	41.2	41.2	41.2	87	37.6	0	0	---	0.00	29.853 
20:15	40.9	40.9	40.9	88	37.6	0	0	---	0.00	29.854 
20:20	40.6	40.6	40.6	88	37.3	0	0	---	0.00	29.859 
20:25	40.3	40.3	40.3	88	37.0	0	0	---	0.00	29.863 
20:30	40.2	40.2	40.2	89	37.2	0	0	---	0.00	29.871 
20:35	39.9	39.9	39.9	89	36.9	0	0	---	0.00	29.873 
20:40	39.6	39.6	39.6	89	36.6	0	0	---	0.00	29.873 
20:45	39.3	39.3	39.3	90	36.6	0	0	---	0.00	29.873 
20:50	39.2	39.2	39.2	90	36.5	0	0	---	0.00	29.875 
20:55	38.9	38.9	38.9	90	36.2	0	0	---	0.00	29.877 
21:00	38.6	38.6	38.6	91	36.2	0	0	---	0.00	29.877 
21:05	38.3	38.3	38.3	91	35.9	0	0	---	0.00	29.880 
21:10	37.9	37.9	37.9	91	35.5	0	0	---	0.00	29.881 
21:15	37.8	37.8	37.8	91	35.4	0	0	---	0.00	29.884 
21:20	37.5	37.5	37.5	91	35.1	0	0	---	0.00	29.886 
21:25	37.3	37.3	37.3	92	35.2	0	0	---	0.00	29.889 
21:30	37.2	37.2	37.2	92	35.1	0	0	---	0.00	29.890 
21:35	37.0	37.0	37.0	92	34.9	0	0	---	0.00	29.891 
21:40	37.2	37.2	37.2	92	35.1	0	0	---	0.00	29.892 
21:45	37.3	37.3	37.3	93	35.5	0	1	292	0.00	29.895 
21:50	37.5	37.5	37.5	93	35.7	0	1	292	0.00	29.896 
21:55	37.6	37.6	37.6	94	36.0	0	1	292	0.00	29.895 
22:00	37.8	37.8	37.8	94	36.2	0	1	292	0.00	29.898 
22:05	37.8	37.8	37.8	94	36.2	0	0	---	0.00	29.898 
22:10	37.8	37.8	37.8	94	36.2	0	1	292	0.00	29.899 
22:15	37.8	37.8	37.8	94	36.2	0	0	---	0.00	29.897 
22:20	37.8	37.8	37.8	94	36.2	0	0	---	0.00	29.895 
22:25	37.8	37.8	37.8	94	36.2	0	0	---	0.00	29.893 
22:30	37.6	37.6	37.6	94	36.0	0	0	---	0.00	29.893 
22:35	37.5	37.5	37.5	94	35.9	0	0	---	0.00	29.893 
22:40	37.5	37.5	37.5	94	35.9	0	0	---	0.00	29.894 
22:45	37.3	37.3	37.3	94	35.7	0	0	---	0.00	29.895 
22:50	37.3	37.3	37.3	94	35.7	0	0	---	0.00	29.894 
22:55	37.2	37.2	37.2	94	35.6	0	0	---	0.00	29.893 
23:00	37.0	37.0	37.0	94	35.4	0	0	---	0.00	29.895 
23:05	36.9	36.9	36.9	94	35.3	0	0	---	0.00	29.897 
23:10	36.9	36.9	36.9	95	35.6	0	0	---	0.00	29.899 
23:15	36.8	36.8	36.8	95	35.5	0	0	---	0.00	29.896 
23:20	36.6	36.6	36.6	95	35.3	0	0	---	0.00	29.896 
23:25	36.5	36.5	36.5	95	35.2	0	0	---	0.00	29.898 
23:30	36.5	36.5	36.5	95	35.2	0	0	---	0.00	29.898 
23:35	36.3	36.3	36.3	95	35.0	0	0	---	0.00	29.902 
23:40	36.3	36.3	36.3	95	35.0	0	0	---	0.00	29.903 
23:45	36.3	36.3	36.3	95	35.0	0	0	---	0.00	29.904 
23:50	36.2	36.2	36.2	95	34.9	0	0	---	0.00	29.905 
23:55	36.0	36.0	36.0	95	34.7	0	0	---	0.00	29.906 

CoCoRaHS
IN-AL-39
A2 Web Hosting
Creative Commons License
GoDaddy
Look for:

loaded 2017-12-13 15:59:09 • last modified 2010-11-18 10:43:29
Privacy PolicyDisclaimer
• wx.awcolley.com is powered by PmWiki v.2002016 •
• all content (unless otherwise noted) © 2017 A W Colley